Time;durP1;ratioP1;P1;durP2;ratioP2;P2;SDS_P1;SDS_P2;PMS_P1;PMS_P2;Temp;Humidity;BMP_temperature;BMP_pressure;BME280_temperature;BME280_humidity;BME280_pressure;Samples;Min_cycle;Max_cycle;Signal;HPM_P1;HPM_P2
2021/12/25 00:02:08;;;;;;;1999.90;999.90;;;-1.50;99.90;;;;;;4994489;28;20046;-81
2021/12/25 00:04:34;;;;;;;1999.90;999.90;;;-1.50;99.90;;;;;;4994440;28;20054;-84
2021/12/25 00:07:00;;;;;;;1999.90;999.90;;;-1.50;99.90;;;;;;4994147;28;20073;-81
2021/12/25 00:09:26;;;;;;;1999.90;999.90;;;-1.50;99.90;;;;;;4994993;28;20034;-81
2021/12/25 00:11:52;;;;;;;1999.90;999.90;;;-1.20;99.90;;;;;;4994582;28;20038;-82
2021/12/25 00:14:18;;;;;;;1999.90;999.90;;;-1.50;99.90;;;;;;4994533;28;20030;-80
2021/12/25 00:16:45;;;;;;;1999.90;999.90;;;-1.50;99.90;;;;;;4994395;28;20389;-83
2021/12/25 00:19:10;;;;;;;1999.90;999.90;;;-1.50;99.90;;;;;;4994200;28;20037;-81
2021/12/25 00:21:36;;;;;;;1999.90;999.90;;;-1.50;99.90;;;;;;4994205;28;20386;-82
2021/12/25 00:24:04;;;;;;;1999.90;999.90;;;-1.50;99.90;;;;;;4993652;28;20485;-80
2021/12/25 00:31:54;;;;;;;1999.90;999.90;;;-1.60;99.90;;;;;;4994826;28;20089;-80
2021/12/25 00:34:23;;;;;;;1999.90;999.90;;;-1.60;99.90;;;;;;4993831;28;20022;-82
2021/12/25 00:36:49;;;;;;;1999.90;999.90;;;-1.60;99.90;;;;;;4993826;28;20467;-84
2021/12/25 00:39:15;;;;;;;1999.90;999.90;;;-1.60;99.90;;;;;;4992730;28;20508;-82
2021/12/25 00:41:41;;;;;;;1999.90;999.90;;;-1.60;99.90;;;;;;4993680;28;20121;-80
2021/12/25 00:44:07;;;;;;;1999.90;999.90;;;-1.60;99.90;;;;;;4994857;28;20029;-81
2021/12/25 00:46:33;;;;;;;1999.90;999.90;;;-1.60;99.90;;;;;;4993841;28;20034;-84
2021/12/25 00:48:59;;;;;;;1999.90;999.90;;;-1.60;99.90;;;;;;4993683;28;20390;-81
2021/12/25 00:51:25;;;;;;;1999.90;999.90;;;-1.60;99.90;;;;;;4993491;28;20042;-82
2021/12/25 00:53:51;;;;;;;1999.90;999.90;;;-1.50;99.90;;;;;;4993657;28;20050;-80
2021/12/25 00:56:17;;;;;;;1999.90;999.90;;;-1.50;99.90;;;;;;4993569;28;20030;-79
2021/12/25 00:58:43;;;;;;;1999.90;999.90;;;-1.50;99.90;;;;;;4993761;28;20023;-80
2021/12/25 01:01:08;;;;;;;1999.90;999.90;;;-1.50;99.90;;;;;;4993397;28;20073;-83
2021/12/25 01:03:34;;;;;;;1999.90;999.90;;;-1.40;99.90;;;;;;4994038;28;20057;-82
2021/12/25 01:06:00;;;;;;;1999.90;999.90;;;-1.50;99.90;;;;;;4993417;28;20026;-80
2021/12/25 01:08:26;;;;;;;1999.90;999.90;;;-1.40;99.90;;;;;;4993403;28;20073;-81
2021/12/25 01:10:52;;;;;;;1999.90;999.90;;;-1.40;99.90;;;;;;4993517;28;20030;-81
2021/12/25 01:13:28;;;;;;;1999.90;999.90;;;-1.50;99.90;;;;;;4993506;28;20050;-82
2021/12/25 01:24:18;;;;;;;1999.90;999.90;;;-1.50;99.90;;;;;;4994340;28;20054;-83
2021/12/25 01:39:58;;;;;;;1999.90;999.90;;;-1.40;99.90;;;;;;5000972;28;20030;-81
2021/12/25 01:50:09;;;;;;;1999.90;999.90;;;-1.30;99.90;;;;;;4996327;28;20058;-80
2021/12/25 01:52:35;;;;;;;1999.90;999.90;;;-1.30;99.90;;;;;;4996489;28;20501;-80
2021/12/25 01:55:15;;;;;;;1999.90;999.90;;;-1.30;99.90;;;;;;4996686;28;20037;-84
2021/12/25 01:57:41;;;;;;;1999.90;999.90;;;-1.30;99.90;;;;;;4996462;28;20069;-85
2021/12/25 02:00:20;;;;;;;1999.90;999.90;;;-1.20;99.90;;;;;;4997138;28;20026;-85
2021/12/25 02:02:46;;;;;;;1999.90;999.90;;;-1.20;99.90;;;;;;4997115;28;20034;-83
2021/12/25 02:05:12;;;;;;;1999.90;999.90;;;-1.10;99.90;;;;;;4996350;28;20049;-83
2021/12/25 02:07:38;;;;;;;1999.90;999.90;;;-1.10;99.90;;;;;;4996432;28;20466;-84
2021/12/25 02:10:07;;;;;;;1999.90;999.90;;;-1.10;99.90;;;;;;4996347;28;20033;-83
2021/12/25 02:12:33;;;;;;;1999.90;999.90;;;-1.10;99.90;;;;;;4996128;28;20030;-81
2021/12/25 02:15:08;;;;;;;1999.90;999.90;;;-1.10;99.90;;;;;;4995907;28;20023;-83
2021/12/25 02:18:08;;;;;;;1999.90;999.90;;;-1.00;99.90;;;;;;4996532;28;20121;-84
2021/12/25 02:20:29;;;;;;;1999.90;999.90;;;-1.10;99.90;;;;;;4997343;28;20533;-81
2021/12/25 02:23:00;;;;;;;1999.90;999.90;;;-0.90;99.90;;;;;;4996254;28;20030;-82
2021/12/25 02:25:35;;;;;;;1999.90;999.90;;;-1.00;99.90;;;;;;4995921;28;20054;-83
2021/12/25 02:28:04;;;;;;;1999.90;999.90;;;-1.00;99.90;;;;;;4995764;28;20014;-81
2021/12/25 02:30:31;;;;;;;1999.90;999.90;;;-1.00;99.90;;;;;;4996079;28;20034;-82
2021/12/25 02:32:58;;;;;;;1999.90;999.90;;;-1.00;99.90;;;;;;4997024;28;20105;-80
2021/12/25 02:35:25;;;;;;;1999.90;999.90;;;-1.00;99.90;;;;;;4995938;28;20030;-83
2021/12/25 02:37:51;;;;;;;1999.90;999.90;;;-1.00;99.90;;;;;;4997072;28;20023;-80
2021/12/25 02:40:18;;;;;;;1999.90;999.90;;;-0.80;99.90;;;;;;4995663;28;20042;-82
2021/12/25 02:42:44;;;;;;;1999.90;999.90;;;-1.00;99.90;;;;;;4995597;28;20022;-84
2021/12/25 02:45:18;;;;;;;1999.90;999.90;;;-1.00;99.90;;;;;;4996789;28;20029;-82
2021/12/25 02:47:46;;;;;;;1999.90;999.90;;;-1.00;99.90;;;;;;4995282;28;20018;-83
2021/12/25 02:50:13;;;;;;;1999.90;999.90;;;-1.00;99.90;;;;;;4995505;28;20363;-80
2021/12/25 02:52:39;;;;;;;1999.90;999.90;;;-0.90;99.90;;;;;;4995322;28;20042;-83
2021/12/25 02:55:06;;;;;;;1999.90;999.90;;;-0.90;99.90;;;;;;4995351;28;20037;-80
2021/12/25 02:57:32;;;;;;;1999.90;999.90;;;-0.90;99.90;;;;;;4995172;28;20022;-81
2021/12/25 02:59:58;;;;;;;1999.90;999.90;;;-0.80;99.90;;;;;;4995858;28;20085;-80
2021/12/25 03:02:24;;;;;;;1999.90;999.90;;;-0.90;99.90;;;;;;4994499;28;20058;-83
2021/12/25 03:04:50;;;;;;;1999.90;999.90;;;-0.80;99.90;;;;;;4996614;28;20018;-83
2021/12/25 03:07:16;;;;;;;1999.90;999.90;;;-0.80;99.90;;;;;;4995118;28;20033;-80
2021/12/25 03:09:42;;;;;;;1999.90;999.90;;;-0.70;99.90;;;;;;4995958;28;20486;-83
2021/12/25 03:12:13;;;;;;;1999.90;999.90;;;-0.70;99.90;;;;;;4994966;28;20383;-84
2021/12/25 03:17:28;;;;;;;1999.90;999.90;;;-0.70;99.90;;;;;;4996196;28;20042;-80
2021/12/25 03:19:56;;;;;;;1999.90;999.90;;;-0.60;99.90;;;;;;4994964;28;20041;-83
2021/12/25 03:22:22;;;;;;;1999.90;999.90;;;-0.60;99.90;;;;;;4995420;28;20034;-82
2021/12/25 03:24:48;;;;;;;1999.90;999.90;;;-0.60;99.90;;;;;;4995261;28;20105;-81
2021/12/25 03:27:14;;;;;;;1999.90;999.90;;;-0.50;99.90;;;;;;4994976;28;20036;-82
2021/12/25 03:29:42;;;;;;;1999.90;999.90;;;-0.60;99.90;;;;;;4994797;28;20532;-81
2021/12/25 03:32:11;;;;;;;1999.90;999.90;;;-0.70;99.90;;;;;;4994948;28;20474;-80
2021/12/25 03:34:37;;;;;;;1999.90;999.90;;;-0.80;99.90;;;;;;4995044;28;20137;-80
2021/12/25 03:37:03;;;;;;;1999.90;999.90;;;-0.70;99.90;;;;;;4994824;28;20030;-80
2021/12/25 03:39:29;;;;;;;1999.90;999.90;;;-0.60;99.90;;;;;;4994601;28;20053;-81
2021/12/25 03:41:57;;;;;;;1999.90;999.90;;;-0.60;99.90;;;;;;4994297;28;20088;-81
2021/12/25 03:44:23;;;;;;;1999.90;999.90;;;-0.70;99.90;;;;;;4995600;28;20033;-84
2021/12/25 03:46:50;;;;;;;1999.90;999.90;;;-0.50;99.90;;;;;;4994917;28;20030;-82
2021/12/25 03:49:34;;;;;;;1999.90;999.90;;;-0.70;99.90;;;;;;4994173;28;20033;-79
2021/12/25 03:57:40;;;;;;;1999.90;999.90;;;-0.50;99.90;;;;;;4995099;28;20064;-82
2021/12/25 04:00:08;;;;;;;1999.90;999.90;;;-0.50;99.90;;;;;;4994315;28;20041;-80
2021/12/25 04:02:49;;;;;;;1999.90;999.90;;;-0.50;99.90;;;;;;4994160;28;20065;-82
2021/12/25 04:05:19;;;;;;;1999.90;999.90;;;-0.50;99.90;;;;;;4994195;28;20116;-80
2021/12/25 04:10:27;;;;;;;1999.90;999.90;;;-0.50;99.90;;;;;;4995123;28;20081;-81
2021/12/25 04:12:55;;;;;;;1999.90;999.90;;;-0.40;99.90;;;;;;4993331;28;20081;-81
2021/12/25 04:15:20;;;;;;;1999.90;999.90;;;-0.50;99.90;;;;;;4994433;28;20434;-81
2021/12/25 04:17:46;;;;;;;1999.90;999.90;;;-0.50;99.90;;;;;;4993980;28;20022;-80
2021/12/25 04:20:12;;;;;;;1999.90;999.90;;;-0.50;99.90;;;;;;4993901;28;20042;-81
2021/12/25 04:23:03;;;;;;;1999.90;999.90;;;-0.40;99.90;;;;;;4994224;28;20192;-81
2021/12/25 04:25:28;;;;;;;1999.90;999.90;;;-0.50;99.90;;;;;;4995308;28;20039;-84
2021/12/25 04:27:59;;;;;;;1999.90;999.90;;;-0.60;99.90;;;;;;4994058;28;20031;-84
2021/12/25 04:30:40;;;;;;;1999.90;999.90;;;-0.50;99.90;;;;;;4993832;28;20162;-83
2021/12/25 05:05:23;;;;;;;1999.90;999.90;;;-0.70;99.90;;;;;;4995249;28;19906;-82
2021/12/25 05:07:48;;;;;;;1999.90;999.90;;;-0.70;99.90;;;;;;4993452;28;20026;-82
2021/12/25 05:10:14;;;;;;;1999.90;999.90;;;-0.60;99.90;;;;;;4993559;28;20489;-82
2021/12/25 05:12:40;;;;;;;1999.90;999.90;;;-0.60;99.90;;;;;;4993818;28;20038;-80
2021/12/25 05:15:06;;;;;;;1999.90;999.90;;;-0.50;99.90;;;;;;4994842;28;20035;-81
2021/12/25 05:17:32;;;;;;;1999.90;999.90;;;-0.50;99.90;;;;;;4993586;28;20049;-80
2021/12/25 05:19:59;;;;;;;1999.90;999.90;;;-0.40;99.90;;;;;;4993506;28;20077;-80
2021/12/25 05:22:25;;;;;;;1999.90;999.90;;;-0.50;99.90;;;;;;4993479;28;20050;-81
2021/12/25 05:24:51;;;;;;;1999.90;999.90;;;-0.40;99.90;;;;;;4994863;28;20442;-83
2021/12/25 05:27:18;;;;;;;1999.90;999.90;;;-0.30;99.90;;;;;;4996847;28;20019;-82
2021/12/25 05:29:46;;;;;;;1999.90;999.90;;;-0.20;99.90;;;;;;4997491;28;20112;-84
2021/12/25 05:32:14;;;;;;;1999.90;999.90;;;-0.30;99.90;;;;;;4997155;28;20026;-84
2021/12/25 05:34:40;;;;;;;1999.90;999.90;;;-0.30;99.90;;;;;;4998301;28;20023;-83
2021/12/25 05:37:06;;;;;;;1999.90;999.90;;;-0.30;99.90;;;;;;4997350;28;20490;-84
2021/12/25 05:39:32;;;;;;;1999.90;999.90;;;-0.20;99.90;;;;;;4997298;28;20443;-84
2021/12/25 05:41:58;;;;;;;1999.90;999.90;;;-0.20;99.90;;;;;;4996372;28;20129;-82
2021/12/25 05:44:25;;;;;;;1999.90;999.90;;;-0.20;99.90;;;;;;4997146;28;20122;-83
2021/12/25 05:46:51;;;;;;;1999.90;999.90;;;-0.10;99.90;;;;;;4996506;28;20364;-82
2021/12/25 05:49:16;;;;;;;1999.90;999.90;;;-0.20;99.90;;;;;;4996896;28;20065;-82
2021/12/25 05:51:42;;;;;;;1999.90;999.90;;;-0.20;99.90;;;;;;4996529;28;20027;-81
2021/12/25 05:54:08;;;;;;;1999.90;999.90;;;-0.10;99.90;;;;;;4996633;28;20050;-80
2021/12/25 05:56:34;;;;;;;1999.90;999.90;;;-0.20;99.90;;;;;;4997804;28;20026;-83
2021/12/25 05:58:59;;;;;;;1999.90;999.90;;;-0.10;99.90;;;;;;4996789;28;20026;-82
2021/12/25 06:01:27;;;;;;;1999.90;999.90;;;-0.20;99.90;;;;;;4996936;28;20048;-81
2021/12/25 06:03:53;;;;;;;1999.90;999.90;;;-0.20;99.90;;;;;;4996924;28;20034;-81
2021/12/25 06:06:19;;;;;;;1999.90;999.90;;;-0.20;99.90;;;;;;4996516;28;20019;-84
2021/12/25 06:08:45;;;;;;;1999.90;999.90;;;-0.20;99.90;;;;;;4996366;28;20133;-83
2021/12/25 06:11:10;;;;;;;1999.90;999.90;;;-0.20;99.90;;;;;;4996341;28;20069;-82
2021/12/25 06:13:44;;;;;;;1999.90;999.90;;;-0.20;99.90;;;;;;4996264;28;20026;-81
2021/12/25 06:16:09;;;;;;;1999.90;999.90;;;-0.10;99.90;;;;;;4996340;28;20046;-85
2021/12/25 06:18:35;;;;;;;1999.90;999.90;;;-0.10;99.90;;;;;;4996241;28;20022;-83
2021/12/25 06:21:01;;;;;;;1999.90;999.90;;;-0.10;99.90;;;;;;4996180;28;20090;-80
2021/12/25 06:23:29;;;;;;;1999.90;999.90;;;-0.10;99.90;;;;;;4996114;28;20026;-80
2021/12/25 06:25:55;;;;;;;1999.90;999.90;;;0.00;99.90;;;;;;4996063;28;20346;-80
2021/12/25 06:28:21;;;;;;;1999.90;999.90;;;0.10;99.90;;;;;;4996072;28;20068;-83
2021/12/25 06:30:49;;;;;;;1999.90;999.90;;;0.00;99.90;;;;;;4996174;28;20545;-81
2021/12/25 06:33:15;;;;;;;1999.90;999.90;;;0.00;99.90;;;;;;4996159;28;20033;-83
2021/12/25 06:35:41;;;;;;;1999.90;999.90;;;0.00;99.90;;;;;;4995650;28;20042;-80
2021/12/25 06:38:07;;;;;;;1999.90;999.90;;;0.00;99.90;;;;;;4995500;28;20525;-80
2021/12/25 06:40:32;;;;;;;1999.90;999.90;;;0.00;99.90;;;;;;4995862;28;20046;-79
2021/12/25 06:42:58;;;;;;;1999.90;999.90;;;0.10;99.90;;;;;;4997532;28;20031;-79
2021/12/25 06:45:24;;;;;;;1999.90;999.90;;;0.00;99.90;;;;;;4995760;28;20031;-80
2021/12/25 06:47:50;;;;;;;1999.90;999.90;;;0.00;99.90;;;;;;4996234;28;20022;-80
2021/12/25 06:50:16;;;;;;;1999.90;999.90;;;0.10;99.90;;;;;;4995739;28;20027;-81
2021/12/25 06:52:45;;;;;;;1999.90;999.90;;;0.00;99.90;;;;;;4996080;28;20050;-80
2021/12/25 06:55:13;;;;;;;1999.90;999.90;;;0.00;99.90;;;;;;4995133;28;20080;-85
2021/12/25 06:57:46;;;;;;;1999.90;999.90;;;0.00;99.90;;;;;;4995601;28;20034;-81
2021/12/25 07:00:13;;;;;;;1999.90;999.90;;;0.10;99.90;;;;;;4996093;28;20034;-82
2021/12/25 07:02:39;;;;;;;1999.90;999.90;;;0.00;99.90;;;;;;4994776;28;20121;-82
2021/12/25 07:05:05;;;;;;;1999.90;999.90;;;0.00;99.90;;;;;;4995735;28;20101;-83
2021/12/25 07:07:31;;;;;;;1999.90;999.90;;;0.00;99.90;;;;;;4997293;28;20482;-81
2021/12/25 07:09:57;;;;;;;1999.90;999.90;;;0.00;99.90;;;;;;4994900;28;20033;-75
2021/12/25 07:12:24;;;;;;;1999.90;999.90;;;0.00;99.90;;;;;;4993708;28;20026;-83
2021/12/25 07:14:50;;;;;;;1999.90;999.90;;;0.10;99.90;;;;;;4996870;28;20348;-85
2021/12/25 07:17:16;;;;;;;1999.90;999.90;;;0.20;99.90;;;;;;4996266;28;20117;-81
2021/12/25 07:19:42;;;;;;;1999.90;999.90;;;0.20;99.90;;;;;;4995436;28;20121;-84
2021/12/25 07:22:08;;;;;;;1999.90;999.90;;;0.20;99.90;;;;;;4995480;28;20130;-81
2021/12/25 07:24:33;;;;;;;1999.90;999.90;;;0.30;99.90;;;;;;4995706;28;20029;-80
2021/12/25 07:27:03;;;;;;;1999.90;999.90;;;0.30;99.90;;;;;;4995155;28;20022;-80
2021/12/25 07:29:29;;;;;;;1999.90;999.90;;;0.30;99.90;;;;;;4994810;28;20026;-81
2021/12/25 07:31:55;;;;;;;1999.90;999.90;;;0.30;99.90;;;;;;4994770;28;20026;-83
2021/12/25 07:34:20;;;;;;;1999.90;999.90;;;0.30;99.90;;;;;;4995639;28;20037;-81
2021/12/25 07:36:46;;;;;;;1999.90;999.90;;;0.30;99.90;;;;;;4995367;28;20029;-81
2021/12/25 07:39:12;;;;;;;1999.90;999.90;;;0.30;99.90;;;;;;4996135;28;20105;-81
2021/12/25 07:41:38;;;;;;;1999.90;999.90;;;0.40;99.90;;;;;;4994589;28;20046;-82
2021/12/25 07:44:04;;;;;;;1999.90;999.90;;;0.60;99.90;;;;;;4995369;28;20026;-81
2021/12/25 07:46:29;;;;;;;1999.90;999.90;;;0.50;99.90;;;;;;4995273;28;20034;-84
2021/12/25 07:48:55;;;;;;;1999.90;999.90;;;0.60;99.90;;;;;;4994552;28;20446;-83
2021/12/25 07:51:21;;;;;;;1999.90;999.90;;;0.50;99.90;;;;;;4995013;28;20157;-81
2021/12/25 07:53:47;;;;;;;1999.90;999.90;;;0.60;99.90;;;;;;4994406;28;20043;-83
2021/12/25 07:56:13;;;;;;;1999.90;999.90;;;0.70;99.90;;;;;;4994786;28;20615;-82
2021/12/25 07:58:39;;;;;;;1999.90;999.90;;;0.80;99.90;;;;;;4995301;28;20027;-81
2021/12/25 08:01:05;;;;;;;1999.90;999.90;;;0.90;99.90;;;;;;4994663;28;20044;-82
2021/12/25 08:03:31;;;;;;;1999.90;999.90;;;0.90;99.90;;;;;;4994938;28;20026;-81
2021/12/25 08:05:57;;;;;;;1999.90;999.90;;;1.00;99.90;;;;;;4994799;28;20033;-82
2021/12/25 08:08:22;;;;;;;1999.90;999.90;;;1.10;99.90;;;;;;4995238;28;20056;-81
2021/12/25 08:10:48;;;;;;;1999.90;999.90;;;1.00;99.90;;;;;;4994705;28;20092;-81
2021/12/25 08:13:15;;;;;;;1999.90;999.90;;;1.20;99.90;;;;;;4994907;28;20034;-83
2021/12/25 08:15:41;;;;;;;1999.90;999.90;;;1.20;99.90;;;;;;4994193;28;20540;-82
2021/12/25 08:18:07;;;;;;;1999.90;999.90;;;1.40;99.90;;;;;;4994713;28;20027;-81
2021/12/25 08:20:35;;;;;;;1999.90;999.90;;;1.30;99.90;;;;;;4994141;28;20037;-81
2021/12/25 08:23:00;;;;;;;1999.90;999.90;;;1.40;99.90;;;;;;4994516;28;20026;-83
2021/12/25 08:25:26;;;;;;;1999.90;999.90;;;1.30;99.90;;;;;;4994446;28;20037;-80
2021/12/25 08:27:53;;;;;;;1999.90;999.90;;;1.40;99.90;;;;;;4994754;28;20050;-80
2021/12/25 08:30:21;;;;;;;1999.90;999.90;;;1.30;99.90;;;;;;4994268;28;20117;-80
2021/12/25 08:32:50;;;;;;;1999.90;999.90;;;1.30;99.90;;;;;;4994668;28;20018;-82
2021/12/25 08:35:16;;;;;;;1999.90;999.90;;;1.40;99.90;;;;;;4994135;28;20023;-82
2021/12/25 08:37:44;;;;;;;1999.90;999.90;;;1.50;99.90;;;;;;4993976;28;20046;-83
2021/12/25 08:40:12;;;;;;;1999.90;999.90;;;1.50;99.90;;;;;;4994494;28;20026;-83
2021/12/25 08:42:45;;;;;;;1999.90;999.90;;;1.50;99.90;;;;;;4993324;28;20037;-80
2021/12/25 08:45:30;;;;;;;1999.90;999.90;;;1.70;99.90;;;;;;5026838;28;20131;-79
2021/12/25 08:47:56;;;;;;;1999.90;999.90;;;1.70;99.90;;;;;;5027441;28;20035;-82
2021/12/25 08:50:22;;;;;;;1999.90;999.90;;;1.80;99.90;;;;;;5025830;28;20422;-80
2021/12/25 08:52:49;;;;;;;1999.90;999.90;;;1.90;99.90;;;;;;5027589;28;20038;-80
2021/12/25 08:55:14;;;;;;;1999.90;999.90;;;2.00;99.90;;;;;;5026998;28;20035;-82
2021/12/25 08:57:40;;;;;;;1999.90;999.90;;;2.20;99.90;;;;;;5027056;28;20104;-80
2021/12/25 09:00:07;;;;;;;1999.90;999.90;;;2.40;99.90;;;;;;5028921;28;20042;-81
2021/12/25 09:02:33;;;;;;;1999.90;999.90;;;2.40;99.90;;;;;;5031116;28;20479;-80
2021/12/25 09:04:59;;;;;;;1999.90;999.90;;;2.60;99.90;;;;;;5031177;28;20037;-81
2021/12/25 09:07:25;;;;;;;1999.90;999.90;;;2.60;99.90;;;;;;4999277;28;20026;-83
2021/12/25 09:09:51;;;;;;;1999.90;999.90;;;2.70;99.90;;;;;;5030887;28;20050;-84
2021/12/25 09:12:19;;;;;;;1999.90;999.90;;;2.90;99.90;;;;;;5030963;28;20089;-80
2021/12/25 09:14:45;;;;;;;1999.90;999.90;;;3.00;99.90;;;;;;5030200;28;20022;-84
2021/12/25 09:17:11;;;;;;;1999.90;999.90;;;3.20;99.90;;;;;;5030856;28;20053;-83
2021/12/25 09:19:37;;;;;;;1999.90;999.90;;;3.40;99.90;;;;;;4998507;28;20030;-84
2021/12/25 09:22:03;;;;;;;1999.90;999.90;;;3.40;99.90;;;;;;5030716;28;20394;-83
2021/12/25 09:24:29;;;;;;;1999.90;999.90;;;3.50;99.90;;;;;;5031169;28;20030;-83
2021/12/25 09:26:55;;;;;;;1999.90;999.90;;;3.60;99.90;;;;;;4998831;28;20034;-83
2021/12/25 09:29:21;;;;;;;1999.90;999.90;;;3.70;99.90;;;;;;5030735;28;20092;-82
2021/12/25 09:31:47;;;;;;;1999.90;999.90;;;3.80;99.90;;;;;;4998381;28;20022;-79
2021/12/25 09:34:12;;;;;;;1999.90;999.90;;;3.90;99.90;;;;;;5029631;28;20113;-83
2021/12/25 09:36:38;;;;;;;1999.90;999.90;;;4.00;99.90;;;;;;5030499;28;20500;-82
2021/12/25 09:39:05;;;;;;;1999.90;999.90;;;4.10;99.90;;;;;;4997728;28;20039;-81
2021/12/25 09:41:33;;;;;;;1999.90;999.90;;;4.10;99.90;;;;;;5028649;28;20394;-79
2021/12/25 09:44:00;;;;;;;1999.90;999.90;;;4.30;99.90;;;;;;5029287;28;20031;-83
2021/12/25 09:46:25;;;;;;;1999.90;999.90;;;4.40;99.90;;;;;;5030301;28;20038;-81
2021/12/25 09:48:52;;;;;;;1999.90;999.90;;;4.40;99.90;;;;;;4998275;28;20026;-81
2021/12/25 09:51:18;;;;;;;1999.90;999.90;;;4.50;99.90;;;;;;4996286;28;20406;-82
2021/12/25 09:53:59;;;;;;;1999.90;999.90;;;4.50;99.90;;;;;;4997589;28;20054;-81
2021/12/25 09:56:26;;;;;;;1999.90;999.90;;;4.50;99.90;;;;;;5014942;28;20030;-85
2021/12/25 09:58:52;;;;;;;1999.90;999.90;;;4.60;99.90;;;;;;4994309;28;20066;-81
2021/12/25 10:01:44;;;;;;;1999.90;999.90;;;4.70;99.90;;;;;;4995122;28;20089;-79
2021/12/25 10:04:28;;;;;;;1999.90;999.90;;;4.80;99.90;;;;;;4996189;28;20050;-84
2021/12/25 10:06:54;;;;;;;1999.90;999.90;;;4.90;99.90;;;;;;4997157;28;20630;-81
2021/12/25 10:09:24;;;;;;;1999.90;999.90;;;5.10;99.90;;;;;;4996802;28;20023;-82
2021/12/25 10:12:08;;;;;;;1999.90;999.90;;;5.20;99.90;;;;;;4993162;28;20034;-85
2021/12/25 10:14:34;;;;;;;1999.90;999.90;;;5.30;99.90;;;;;;4994302;28;20054;-81
2021/12/25 10:17:15;;;;;;;1999.90;999.90;;;5.30;99.90;;;;;;4996540;28;20027;-81
2021/12/25 10:19:41;;;;;;;1999.90;999.90;;;5.40;99.90;;;;;;4992430;28;20462;-83
2021/12/25 10:22:11;;;;;;;1999.90;999.90;;;5.50;99.90;;;;;;4996643;28;20129;-84
2021/12/25 10:24:49;;;;;;;1999.90;999.90;;;5.60;99.90;;;;;;4993746;28;20033;-78
2021/12/25 10:27:17;;;;;;;1999.90;999.90;;;5.60;99.90;;;;;;4977183;28;20023;-85
2021/12/25 10:29:43;;;;;;;1999.90;999.90;;;5.70;99.90;;;;;;4991536;28;20422;-84
2021/12/25 10:32:19;;;;;;;1999.90;999.90;;;5.80;99.90;;;;;;4995429;28;20030;-84
2021/12/25 10:34:45;;;;;;;;;;;5.80;99.90;;;;;;4998730;28;20429;-84
2021/12/25 10:37:13;;;;;;;;;;;5.90;99.90;;;;;;4997026;28;19928;-83
2021/12/25 10:39:39;;;;;;;1999.90;999.90;;;6.00;99.90;;;;;;4997976;28;19906;-83
2021/12/25 10:42:12;;;;;;;1999.90;999.90;;;6.10;99.90;;;;;;4995446;28;20113;-82
2021/12/25 10:44:43;;;;;;;1999.90;999.90;;;6.10;99.90;;;;;;4996799;28;20032;-81
2021/12/25 10:47:32;;;;;;;1999.90;999.90;;;6.20;99.90;;;;;;4996482;28;20033;-78
2021/12/25 10:50:02;;;;;;;1999.90;999.90;;;6.40;99.90;;;;;;4995246;28;20034;-83
2021/12/25 10:52:32;;;;;;;1999.90;999.90;;;6.40;99.90;;;;;;4997105;28;20073;-83
2021/12/25 10:55:14;;;;;;;1999.90;999.90;;;6.40;99.90;;;;;;4997634;28;20125;-82
2021/12/25 10:57:40;;;;;;;1999.90;999.90;;;6.50;99.90;;;;;;4996293;28;20030;-86
2021/12/25 11:00:20;;;;;;;1999.90;999.90;;;6.60;99.90;;;;;;4995378;28;20041;-83
2021/12/25 11:02:50;;;;;;;1999.90;999.90;;;6.50;99.90;;;;;;4995883;28;20034;-83
2021/12/25 11:05:17;;;;;;;1999.90;999.90;;;6.50;99.90;;;;;;4995667;28;20121;-87
2021/12/25 11:07:44;;;;;;;1999.90;999.90;;;6.50;99.90;;;;;;4995676;28;20026;-81
2021/12/25 11:10:11;;;;;;;1999.90;999.90;;;6.50;99.90;;;;;;4995222;28;20046;-81
2021/12/25 11:12:37;;;;;;;1999.90;999.90;;;6.50;99.90;;;;;;4995551;28;20030;-84
2021/12/25 11:15:24;;;;;;;1999.90;999.90;;;6.50;99.90;;;;;;4996829;28;20045;-85
2021/12/25 11:17:53;;;;;;;1999.90;999.90;;;6.50;99.90;;;;;;4996954;28;20026;-85
2021/12/25 11:20:37;;;;;;;1999.90;999.90;;;6.50;99.90;;;;;;4996128;28;20030;-85
2021/12/25 11:23:06;;;;;;;1999.90;999.90;;;6.50;99.90;;;;;;4995474;28;20030;-85
2021/12/25 11:25:33;;;;;;;1999.90;999.90;;;6.50;99.90;;;;;;4997251;28;20022;-83
2021/12/25 11:28:01;;;;;;;1999.90;999.90;;;6.60;99.90;;;;;;4995533;28;20030;-84
2021/12/25 11:30:32;;;;;;;1999.90;999.90;;;6.60;99.90;;;;;;4996989;28;20055;-80
2021/12/25 11:32:58;;;;;;;1999.90;999.90;;;6.70;99.90;;;;;;4995512;28;20019;-84
2021/12/25 11:35:25;;;;;;;1999.90;999.90;;;6.70;99.90;;;;;;4996283;28;20038;-85
2021/12/25 11:37:54;;;;;;;1999.90;999.90;;;6.70;99.90;;;;;;4995555;28;20019;-86
2021/12/25 11:40:23;;;;;;;1999.90;999.90;;;6.80;99.90;;;;;;4994880;28;20089;-84
2021/12/25 11:42:56;;;;;;;1999.90;999.90;;;6.70;99.90;;;;;;4995326;28;20109;-85
2021/12/25 11:45:28;;;;;;;1999.90;999.90;;;6.70;99.90;;;;;;4994786;28;20040;-83
2021/12/25 11:47:59;;;;;;;1999.90;999.90;;;6.70;99.90;;;;;;4994736;28;20026;-84
2021/12/25 11:50:31;;;;;;;1999.90;999.90;;;6.70;99.90;;;;;;4994681;28;20544;-83
2021/12/25 11:53:21;;;;;;;1999.90;999.90;;;6.60;99.90;;;;;;4994702;28;20512;-84
2021/12/25 11:56:38;;;;;;;1999.90;999.90;;;6.50;99.90;;;;;;4994559;28;20524;-83
2021/12/25 11:59:09;;;;;;;1999.90;999.90;;;6.50;99.90;;;;;;4994068;28;20364;-81
2021/12/25 12:01:45;;;;;;;1999.90;999.90;;;6.50;99.90;;;;;;4994692;28;20121;-80
2021/12/25 12:04:10;;;;;;;1999.90;999.90;;;6.40;99.90;;;;;;4994870;28;20050;-82
2021/12/25 12:06:45;;;;;;;1999.90;999.90;;;6.40;99.90;;;;;;4994766;28;20027;-80
2021/12/25 12:09:13;;;;;;;1999.90;999.90;;;6.20;99.90;;;;;;4994247;28;20056;-79
2021/12/25 12:11:41;;;;;;;1999.90;999.90;;;6.20;99.90;;;;;;4995566;28;20030;-80
2021/12/25 12:14:27;;;;;;;1999.90;999.90;;;6.20;99.90;;;;;;4993984;28;20497;-84
2021/12/25 12:16:55;;;;;;;1999.90;999.90;;;6.10;99.90;;;;;;4993751;28;20033;-80
2021/12/25 12:19:37;;;;;;;1999.90;999.90;;;6.00;99.90;;;;;;4994078;28;20482;-81
2021/12/25 12:22:20;;;;;;;1999.90;999.90;;;6.00;99.90;;;;;;4994065;28;20057;-79
2021/12/25 12:27:52;;;;;;;1999.90;999.90;;;6.00;99.90;;;;;;4994679;28;20065;-84
2021/12/25 12:30:50;;;;;;;1999.90;999.90;;;6.00;99.90;;;;;;4994108;28;20026;-83
2021/12/25 12:33:15;;;;;;;1999.90;999.90;;;5.90;99.90;;;;;;4995545;28;20086;-82
2021/12/25 12:35:45;;;;;;;1999.90;999.90;;;6.00;99.90;;;;;;4993250;28;20034;-82
2021/12/25 12:38:42;;;;;;;1999.90;999.90;;;6.10;99.90;;;;;;4993459;28;20022;-83
2021/12/25 12:41:33;;;;;;;1999.90;999.90;;;6.10;99.90;;;;;;4993389;28;20456;-81
2021/12/25 12:44:09;;;;;;;1999.90;999.90;;;6.20;99.90;;;;;;4993231;28;20113;-83
2021/12/25 12:46:51;;;;;;;1999.90;999.90;;;6.20;99.90;;;;;;4993360;28;20019;-82
2021/12/25 12:49:19;;;;;;;1999.90;999.90;;;6.20;99.90;;;;;;4992844;28;20077;-79
2021/12/25 12:52:09;;;;;;;1999.90;999.90;;;6.10;99.90;;;;;;4992787;28;20077;-82
2021/12/25 12:54:48;;;;;;;1999.90;999.90;;;6.10;99.90;;;;;;4991539;28;20513;-83
2021/12/25 12:57:27;;;;;;;1999.90;999.90;;;6.10;99.90;;;;;;4991586;28;20037;-81
2021/12/25 12:59:56;;;;;;;1999.90;999.90;;;6.00;99.90;;;;;;4991974;28;20504;-80
2021/12/25 13:02:24;;;;;;;1999.90;999.90;;;6.00;99.90;;;;;;4991875;28;20049;-81
2021/12/25 13:04:55;;;;;;;1999.90;999.90;;;5.90;99.90;;;;;;4992064;28;20022;-84
2021/12/25 13:07:21;;;;;;;1999.90;999.90;;;5.90;99.90;;;;;;4992291;28;20523;-81
2021/12/25 13:10:13;;;;;;;1999.90;999.90;;;5.90;99.90;;;;;;4991960;28;20027;-79
2021/12/25 13:12:44;;;;;;;1999.90;999.90;;;5.90;99.90;;;;;;4993256;28;20374;-82
2021/12/25 13:15:32;;;;;;;1999.90;999.90;;;6.00;99.90;;;;;;4992668;28;20398;-82
2021/12/25 13:18:00;;;;;;;1999.90;999.90;;;6.00;99.90;;;;;;4993386;28;20053;-79
2021/12/25 13:20:36;;;;;;;1999.90;999.90;;;6.00;99.90;;;;;;4992840;28;20031;-82
2021/12/25 13:23:06;;;;;;;1999.90;999.90;;;6.00;99.90;;;;;;4992163;28;20073;-80
2021/12/25 13:25:32;;;;;;;1999.90;999.90;;;6.00;99.90;;;;;;4992543;28;20022;-79
2021/12/25 13:28:02;;;;;;;1999.90;999.90;;;6.00;99.90;;;;;;4991383;28;20097;-80
2021/12/25 13:30:30;;;;;;;1999.90;999.90;;;6.00;99.90;;;;;;4991582;28;20470;-80
2021/12/25 13:33:07;;;;;;;1999.90;999.90;;;6.00;99.90;;;;;;4994179;28;20101;-84
2021/12/25 13:35:33;;;;;;;1999.90;999.90;;;6.00;99.90;;;;;;4992752;28;20033;-80
2021/12/25 13:38:00;;;;;;;1999.90;999.90;;;6.00;99.90;;;;;;4992725;28;20018;-81